Time;durP1;ratioP1;P1;durP2;ratioP2;P2;SDS_P1;SDS_P2;PMS_P1;PMS_P2;Temp;Humidity;BMP_temperature;BMP_pressure;BME280_temperature;BME280_humidity;BME280_pressure;Samples;Min_cycle;Max_cycle;Signal;HPM_P1;HPM_P2
2020/12/17 00:00:23;;;;;;;166.07;87.32;;;;;;;2.34;100.00;99809.06;2113260;28;20221;-77
2020/12/17 00:01:24;;;;;;;170.95;86.82;;;;;;;2.28;100.00;99796.81;2113461;28;20236;-77
2020/12/17 00:02:25;;;;;;;165.73;86.97;;;;;;;2.33;100.00;99796.91;2104533;28;20241;-77
2020/12/17 00:03:27;;;;;;;166.10;85.97;;;;;;;2.35;100.00;99806.22;2104934;28;20711;-77
2020/12/17 00:04:28;;;;;;;163.90;86.28;;;;;;;2.27;100.00;99793.38;2104977;28;20262;-77
2020/12/17 00:05:29;;;;;;;166.85;86.43;;;;;;;2.35;100.00;99806.22;2104944;28;20740;-77
2020/12/17 00:06:30;;;;;;;163.50;85.70;;;;;;;2.24;100.00;99786.69;2113569;28;20237;-77
2020/12/17 00:07:31;;;;;;;169.93;87.70;;;;;;;2.34;100.00;99809.06;2122579;27;20227;-77
2020/12/17 00:08:32;;;;;;;166.67;87.13;;;;;;;2.30;100.00;99805.28;2122441;27;20243;-77
2020/12/17 00:09:33;;;;;;;161.57;88.28;;;;;;;2.30;100.00;99802.66;2122526;27;20224;-77
2020/12/17 00:10:36;;;;;;;165.60;86.57;;;;;;;2.32;100.00;99803.22;2113279;28;20299;-78
2020/12/17 00:11:37;;;;;;;165.63;86.57;;;;;;;2.30;100.00;99800.00;2113136;28;20224;-78
2020/12/17 00:12:40;;;;;;;171.27;88.10;;;;;;;2.32;100.00;99803.22;2113200;28;20263;-77
2020/12/17 00:13:40;;;;;;;165.30;86.38;;;;;;;2.34;100.00;99801.16;2113577;27;20232;-77
2020/12/17 00:14:42;;;;;;;168.10;87.87;;;;;;;2.34;100.00;99795.91;2113104;28;20236;-77
2020/12/17 00:15:42;;;;;;;170.48;88.95;;;;;;;2.23;100.00;99779.84;2113393;28;20224;-79
2020/12/17 00:16:44;;;;;;;167.40;88.13;;;;;;;2.26;100.00;99789.94;2122396;27;20216;-78
2020/12/17 00:17:46;;;;;;;179.70;89.47;;;;;;;2.29;100.00;99790.50;2122407;27;20212;-78
2020/12/17 00:18:48;;;;;;;170.73;87.82;;;;;;;2.28;100.00;99789.72;2113229;28;20227;-78
2020/12/17 00:19:49;;;;;;;165.30;88.47;;;;;;;2.23;100.00;99785.09;2104614;28;20686;-78
2020/12/17 00:20:50;;;;;;;181.47;89.60;;;;;;;2.29;100.00;99793.16;2113215;28;20672;-78
2020/12/17 00:21:52;;;;;;;166.23;84.05;;;;;;;2.23;100.00;99785.09;2122400;27;20236;-78
2020/12/17 00:22:53;;;;;;;171.48;87.85;;;;;;;2.28;100.00;99800.25;2121942;27;20224;-78
2020/12/17 00:23:55;;;;;;;178.80;90.65;;;;;;;2.28;100.00;99802.06;2112815;28;20227;-78
2020/12/17 00:24:56;;;;;;;173.30;88.65;;;;;;;2.28;100.00;99796.81;2113182;27;20247;-78
2020/12/17 00:25:58;;;;;;;181.13;91.05;;;;;;;2.25;100.00;99793.56;2113113;28;20713;-78
2020/12/17 00:26:58;;;;;;;180.82;91.93;;;;;;;2.33;100.00;99799.56;2113177;28;20221;-79
2020/12/17 00:28:00;;;;;;;174.40;91.40;;;;;;;2.32;100.00;99792.69;2113315;28;20295;-78
2020/12/17 00:29:00;;;;;;;179.90;94.22;;;;;;;2.25;100.00;99788.31;2122287;27;20220;-78
2020/12/17 00:30:02;;;;;;;180.63;92.70;;;;;;;2.24;100.00;99789.34;2122282;27;20299;-78
2020/12/17 00:31:02;;;;;;;179.23;93.35;;;;;;;2.31;100.00;99798.97;2113046;28;20232;-78
2020/12/17 00:32:04;;;;;;;174.43;89.07;;;;;;;2.26;100.00;99789.13;2113357;28;20271;-78
2020/12/17 00:33:04;;;;;;;179.98;91.82;;;;;;;2.26;100.00;99794.41;2122152;27;20234;-78
2020/12/17 00:34:06;;;;;;;162.90;85.73;;;;;;;2.26;100.00;99789.13;2122419;27;20224;-78
2020/12/17 00:35:08;;;;;;;176.73;90.97;;;;;;;2.24;100.00;99786.69;2121805;27;20227;-78
2020/12/17 00:36:09;;;;;;;170.27;91.07;;;;;;;2.29;100.00;99793.94;2122167;27;20250;-78
2020/12/17 00:37:10;;;;;;;175.02;89.60;;;;;;;2.23;100.00;99790.38;2122148;27;20230;-78
2020/12/17 00:38:11;;;;;;;173.50;92.23;;;;;;;2.26;100.00;99789.94;2122116;27;20227;-78
2020/12/17 00:39:12;;;;;;;172.23;92.00;;;;;;;2.23;100.00;99792.19;2113157;28;20231;-78
2020/12/17 00:40:14;;;;;;;180.10;94.23;;;;;;;2.29;100.00;99798.41;2104271;28;20228;-78
2020/12/17 00:41:16;;;;;;;193.13;95.32;;;;;;;2.19;100.00;99781.31;2112609;28;20228;-78
2020/12/17 00:42:17;;;;;;;175.43;92.65;;;;;;;2.26;100.00;99784.69;2113062;28;20243;-78
2020/12/17 00:43:17;;;;;;;175.48;92.75;;;;;;;2.32;100.00;99793.50;2104486;28;20243;-79
2020/12/17 00:44:19;;;;;;;181.00;92.63;;;;;;;2.33;100.00;99799.56;2104674;28;20756;-78
2020/12/17 00:45:20;;;;;;;176.93;93.15;;;;;;;2.32;100.00;99795.31;2104501;28;20217;-78
2020/12/17 00:46:21;;;;;;;178.37;91.17;;;;;;;2.33;100.00;99792.47;2104584;28;20220;-78
2020/12/17 00:47:22;;;;;;;177.70;91.82;;;;;;;2.33;100.00;99786.38;2112674;28;20914;-78
2020/12/17 00:48:23;;;;;;;173.80;90.30;;;;;;;2.34;100.00;99790.63;2122083;27;20224;-78
2020/12/17 00:49:25;;;;;;;176.30;89.63;;;;;;;2.38;100.00;99797.06;2112900;28;20224;-78
2020/12/17 00:50:26;;;;;;;177.57;92.88;;;;;;;2.25;100.00;99780.41;2104578;28;20704;-78
2020/12/17 00:51:27;;;;;;;176.40;92.15;;;;;;;2.36;100.00;99796.50;2104462;28;20718;-78
2020/12/17 00:52:28;;;;;;;171.10;89.33;;;;;;;2.34;100.00;99794.06;2112977;28;20583;-78
2020/12/17 00:53:28;;;;;;;172.70;91.05;;;;;;;2.32;100.00;99782.97;2122037;27;20223;-78
2020/12/17 00:54:30;;;;;;;173.17;87.87;;;;;;;2.25;100.00;99776.97;2112947;28;20554;-78
2020/12/17 00:55:31;;;;;;;175.27;91.15;;;;;;;2.35;100.00;99789.63;2104610;28;20221;-78
2020/12/17 00:56:32;;;;;;;175.47;91.40;;;;;;;2.35;100.00;99789.63;2104267;28;20267;-78
2020/12/17 00:57:33;;;;;;;173.52;90.20;;;;;;;2.38;100.00;99797.06;2113340;28;20216;-78
2020/12/17 00:58:34;;;;;;;182.17;91.37;;;;;;;2.32;100.00;99782.16;2112863;28;20217;-78
2020/12/17 00:59:35;;;;;;;187.63;90.70;;;;;;;2.40;100.00;99792.38;2104539;28;20285;-78
2020/12/17 01:00:36;;;;;;;178.47;92.17;;;;;;;2.39;100.00;99796.03;2112916;28;20229;-78
2020/12/17 01:01:37;;;;;;;178.75;92.15;;;;;;;2.39;100.00;99790.78;2112468;28;20705;-78
2020/12/17 01:02:38;;;;;;;176.17;90.70;;;;;;;2.36;100.00;99784.13;2122208;27;20597;-78
2020/12/17 01:03:39;;;;;;;178.65;91.43;;;;;;;2.37;100.00;99784.94;2122045;27;20263;-78
2020/12/17 01:04:41;;;;;;;169.63;89.60;;;;;;;2.33;100.00;99783.75;2122150;27;20247;-78
2020/12/17 01:05:41;;;;;;;180.32;91.95;;;;;;;2.36;100.00;99789.41;2121928;27;20227;-78
2020/12/17 01:06:43;;;;;;;172.17;91.23;;;;;;;2.38;100.00;99792.59;2112531;28;20769;-78
2020/12/17 01:07:43;;;;;;;176.93;90.50;;;;;;;2.39;100.00;99798.66;2103931;28;20252;-78
2020/12/17 01:08:45;;;;;;;176.73;91.63;;;;;;;2.37;100.00;99787.56;2112847;28;20231;-78
2020/12/17 01:09:45;;;;;;;178.90;88.72;;;;;;;2.39;100.00;99796.84;2121994;27;20216;-78
2020/12/17 01:10:47;;;;;;;177.90;90.73;;;;;;;2.41;100.00;99791.34;2112108;28;20240;-78
2020/12/17 01:11:47;;;;;;;171.63;88.35;;;;;;;2.41;100.00;99796.59;2103495;28;20221;-78
2020/12/17 01:12:49;;;;;;;174.73;92.30;;;;;;;2.37;100.00;99790.19;2104345;28;20225;-78
2020/12/17 01:13:49;;;;;;;172.43;89.80;;;;;;;2.38;100.00;99797.88;2112956;28;20216;-77
2020/12/17 01:14:50;;;;;;;174.50;92.40;;;;;;;2.36;100.00;99788.59;2112423;28;20227;-78
2020/12/17 01:15:51;;;;;;;170.93;90.13;;;;;;;2.40;100.00;99795.81;2113045;28;20303;-77
2020/12/17 01:16:52;;;;;;;173.33;89.27;;;;;;;2.35;100.00;99787.78;2112426;28;20780;-77
2020/12/17 01:17:53;;;;;;;174.65;89.45;;;;;;;2.40;100.00;99795.00;2112857;28;20596;-77
2020/12/17 01:18:54;;;;;;;166.60;87.93;;;;;;;2.42;100.00;99799.00;2112396;28;20259;-77
2020/12/17 01:19:56;;;;;;;171.57;88.93;;;;;;;2.37;100.00;99795.47;2112737;28;20221;-77
2020/12/17 01:20:57;;;;;;;171.85;87.43;;;;;;;2.37;100.00;99800.72;2112919;28;20554;-77
2020/12/17 01:21:58;;;;;;;168.55;88.82;;;;;;;2.42;100.00;99801.66;2121972;27;20246;-77
2020/12/17 01:22:59;;;;;;;172.45;89.97;;;;;;;2.44;100.00;99804.88;2122125;27;20284;-78
2020/12/17 01:24:00;;;;;;;175.30;89.10;;;;;;;2.44;100.00;99801.44;2121890;27;20219;-77
2020/12/17 01:25:01;;;;;;;170.53;87.93;;;;;;;2.43;100.00;99797.19;2112701;28;20224;-77
2020/12/17 01:26:08;;;;;;;167.25;87.53;;;;;;;2.39;100.00;99788.94;2104630;28;20226;-78
2020/12/17 01:27:09;;;;;;;172.35;87.50;;;;;;;2.45;100.00;99795.16;2113158;28;20278;-79
2020/12/17 01:28:12;;;;;;;173.77;89.30;;;;;;;2.37;100.00;99788.38;2112594;28;20580;-77
2020/12/17 01:29:13;;;;;;;175.02;90.20;;;;;;;2.37;100.00;99784.94;2113094;28;20220;-78
2020/12/17 01:30:14;;;;;;;160.55;88.10;;;;;;;2.39;100.00;99796.84;2112676;28;20274;-78
2020/12/17 01:31:16;;;;;;;170.70;88.93;;;;;;;2.36;100.00;99785.97;2104015;28;20229;-78
2020/12/17 01:32:16;;;;;;;169.52;90.22;;;;;;;2.40;100.00;99795.00;2104446;28;20213;-78
2020/12/17 01:33:18;;;;;;;166.20;85.47;;;;;;;2.37;100.00;99796.25;2112730;28;20710;-78
2020/12/17 01:34:18;;;;;;;167.40;88.78;;;;;;;2.40;100.00;99797.63;2112710;28;20220;-77
2020/12/17 01:35:21;;;;;;;170.13;88.17;;;;;;;2.38;100.00;99791.81;2112578;28;20227;-78
2020/12/17 01:36:21;;;;;;;168.52;88.90;;;;;;;2.38;100.00;99791.81;2112958;28;20290;-78
2020/12/17 01:37:22;;;;;;;170.03;86.30;;;;;;;2.37;100.00;99787.56;2112917;28;20240;-78
2020/12/17 01:38:23;;;;;;;162.73;87.50;;;;;;;2.28;100.00;99776.53;2113166;28;20670;-77
2020/12/17 01:39:25;;;;;;;171.37;88.50;;;;;;;2.39;100.00;99788.13;2104249;28;20657;-77
2020/12/17 01:40:26;;;;;;;157.10;83.90;;;;;;;2.36;100.00;99785.97;2104411;28;20225;-77
2020/12/17 01:41:27;;;;;;;170.07;88.27;;;;;;;2.39;100.00;99788.13;2113500;28;20291;-77
2020/12/17 01:42:28;;;;;;;166.02;86.28;;;;;;;2.39;100.00;99783.66;2104233;28;20214;-77
2020/12/17 01:43:35;;;;;;;167.33;87.97;;;;;;;2.38;100.00;99792.59;2104282;28;20217;-77
2020/12/17 01:44:38;;;;;;;153.68;84.05;;;;;;;2.38;100.00;99797.06;2105230;28;20315;-77
2020/12/17 01:45:39;;;;;;;160.07;83.60;;;;;;;2.36;100.00;99788.59;2117440;28;20666;-77
2020/12/17 01:46:40;;;;;;;154.98;81.63;;;;;;;2.31;100.00;99777.91;2121770;28;20231;-77
2020/12/17 01:47:46;;;;;;;157.37;83.47;;;;;;;2.37;100.00;99790.19;2121807;28;20310;-78
2020/12/17 01:48:47;;;;;;;161.50;83.15;;;;;;;2.37;100.00;99782.31;2112706;28;20213;-77
2020/12/17 01:49:48;;;;;;;158.77;81.20;;;;;;;2.35;100.00;99779.09;2104308;28;20746;-77
2020/12/17 01:50:50;;;;;;;156.65;83.40;;;;;;;2.36;100.00;99783.34;2112849;28;20263;-77
2020/12/17 01:51:53;;;;;;;160.95;84.78;;;;;;;2.36;100.00;99778.06;2112642;28;20719;-77
2020/12/17 01:52:53;;;;;;;164.05;83.22;;;;;;;2.37;100.00;99775.19;2103685;28;20228;-77
2020/12/17 01:53:55;;;;;;;155.53;84.97;;;;;;;2.40;100.00;99784.47;2104147;28;20305;-77
2020/12/17 01:54:56;;;;;;;168.35;86.15;;;;;;;2.39;100.00;99780.25;2112983;28;20220;-77
2020/12/17 01:56:02;;;;;;;159.47;82.97;;;;;;;2.38;100.00;99786.53;2103812;28;20320;-77
2020/12/17 01:57:04;;;;;;;154.68;81.35;;;;;;;2.38;100.00;99787.34;2113434;28;20227;-77
2020/12/17 01:58:06;;;;;;;156.23;81.57;;;;;;;2.37;100.00;99782.31;2112666;28;20323;-78
2020/12/17 01:59:15;;;;;;;153.50;78.45;;;;;;;2.35;100.00;99776.47;2112414;28;20225;-78
2020/12/17 02:00:19;;;;;;;147.00;75.97;;;;;;;2.34;100.00;99769.56;2122012;28;20223;-78
2020/12/17 02:01:23;;;;;;;141.93;75.25;;;;;;;2.32;100.00;99763.72;2112606;28;20224;-77
2020/12/17 02:02:26;;;;;;;145.73;76.22;;;;;;;2.41;100.00;99770.28;2112208;28;20224;-78
2020/12/17 02:03:27;;;;;;;143.45;77.05;;;;;;;2.39;100.00;99772.34;2113067;28;20254;-78
2020/12/17 02:04:28;;;;;;;147.50;76.93;;;;;;;2.35;100.00;99766.72;2112564;28;20225;-77
2020/12/17 02:05:29;;;;;;;138.65;75.32;;;;;;;2.29;100.00;99761.56;2112801;28;20239;-77
2020/12/17 02:06:34;;;;;;;139.95;74.68;;;;;;;2.38;100.00;99778.63;2112581;28;20303;-76
2020/12/17 02:07:35;;;;;;;138.32;73.93;;;;;;;2.39;100.00;99769.69;2104516;28;20225;-77
2020/12/17 02:08:39;;;;;;;138.07;73.10;;;;;;;2.43;100.00;99778.75;2112756;28;20266;-77
2020/12/17 02:09:40;;;;;;;145.52;76.10;;;;;;;2.39;100.00;99772.34;2111367;28;20228;-77
2020/12/17 02:10:41;;;;;;;151.50;76.53;;;;;;;2.42;100.00;99777.16;2104179;28;20229;-77
2020/12/17 02:11:50;;;;;;;142.77;76.70;;;;;;;2.43;100.00;99781.38;2103612;28;20229;-78
2020/12/17 02:12:52;;;;;;;140.77;74.95;;;;;;;2.41;100.00;99776.34;2114087;28;20221;-78
2020/12/17 02:13:53;;;;;;;141.43;77.10;;;;;;;2.38;100.00;99768.09;2112202;28;20225;-78
2020/12/17 02:14:54;;;;;;;137.83;74.20;;;;;;;2.33;100.00;99767.97;2112586;28;20232;-78
2020/12/17 02:15:55;;;;;;;144.85;78.20;;;;;;;2.41;100.00;99781.59;2112519;28;20216;-77
2020/12/17 02:16:56;;;;;;;142.67;75.67;;;;;;;2.40;100.00;99776.56;2112755;28;20295;-78
2020/12/17 02:17:56;;;;;;;152.15;79.10;;;;;;;2.46;100.00;99765.16;2112152;28;20285;-78
2020/12/17 02:18:58;;;;;;;160.07;81.73;;;;;;;2.44;100.00;99769.84;2112880;28;20232;-77
2020/12/17 02:19:58;;;;;;;153.85;82.20;;;;;;;2.45;100.00;99771.44;2121609;28;20235;-77
2020/12/17 02:21:00;;;;;;;157.90;83.97;;;;;;;2.40;100.00;99773.94;2121791;28;20251;-78
2020/12/17 02:22:02;;;;;;;155.43;84.28;;;;;;;2.41;100.00;99773.72;2112371;28;20228;-78
2020/12/17 02:23:03;;;;;;;158.73;85.05;;;;;;;2.36;100.00;99765.69;2104089;28;20603;-78
2020/12/17 02:24:04;;;;;;;164.85;87.00;;;;;;;2.44;100.00;99770.66;2113291;28;20691;-77
2020/12/17 02:25:07;;;;;;;177.57;96.77;;;;;;;2.35;100.00;99766.72;2123160;27;20652;-78
2020/12/17 02:26:08;;;;;;;172.18;93.15;;;;;;;2.36;100.00;99767.53;2122913;27;20220;-77
2020/12/17 02:27:09;;;;;;;165.90;92.37;;;;;;;2.28;100.00;99760.75;2123394;27;20682;-78
2020/12/17 02:28:10;;;;;;;174.02;94.68;;;;;;;2.34;100.00;99767.72;2114038;28;20671;-78
2020/12/17 02:29:11;;;;;;;166.53;91.63;;;;;;;2.34;100.00;99766.94;2105881;28;20613;-77
2020/12/17 02:30:15;;;;;;;191.32;105.00;;;;;;;2.34;100.00;99751.13;2105314;28;20302;-77
2020/12/17 02:31:16;;;;;;;211.73;114.82;;;;;;;2.41;100.00;99770.28;2114147;28;20287;-77
2020/12/17 02:32:17;;;;;;;197.15;110.43;;;;;;;2.34;100.00;99770.38;2105499;28;20768;-78
2020/12/17 02:33:18;;;;;;;195.40;104.50;;;;;;;2.36;100.00;99768.34;2105017;28;20694;-78
2020/12/17 02:34:19;;;;;;;213.15;107.65;;;;;;;2.36;100.00;99773.59;2105862;28;20233;-78
2020/12/17 02:35:20;;;;;;;220.57;113.50;;;;;;;2.37;100.00;99772.56;2114144;28;20225;-78
2020/12/17 02:36:21;;;;;;;225.27;113.97;;;;;;;2.39;100.00;99767.88;2113956;28;20217;-78
2020/12/17 02:37:22;;;;;;;231.97;113.00;;;;;;;2.46;100.00;99778.31;2105851;28;20228;-78
2020/12/17 02:38:23;;;;;;;226.50;110.00;;;;;;;2.45;100.00;99781.97;2113888;28;20221;-78
2020/12/17 02:39:24;;;;;;;213.23;109.05;;;;;;;2.40;100.00;99768.66;2114013;28;20225;-77
2020/12/17 02:40:26;;;;;;;218.25;109.72;;;;;;;2.38;100.00;99770.75;2123138;27;20227;-77
2020/12/17 02:41:27;;;;;;;222.82;112.47;;;;;;;2.34;100.00;99770.38;2114122;28;20243;-78
2020/12/17 02:42:28;;;;;;;232.45;115.95;;;;;;;2.34;100.00;99780.09;2105767;28;20225;-77
2020/12/17 02:43:29;;;;;;;220.80;110.93;;;;;;;2.33;100.00;99773.22;2114264;28;20312;-78
2020/12/17 02:44:30;;;;;;;233.23;118.93;;;;;;;2.31;100.00;99770.81;2114241;28;20224;-77
2020/12/17 02:45:31;;;;;;;248.97;121.97;;;;;;;2.22;100.00;99762.44;2105662;28;20225;-77
2020/12/17 02:46:32;;;;;;;247.98;120.72;;;;;;;2.28;100.00;99767.84;2113774;28;20733;-77
2020/12/17 02:47:33;;;;;;;246.57;121.50;;;;;;;2.22;100.00;99757.16;2105356;28;20603;-77
2020/12/17 02:48:34;;;;;;;250.55;126.90;;;;;;;2.23;100.00;99758.78;2105570;28;20224;-78
2020/12/17 02:49:35;;;;;;;241.87;120.30;;;;;;;2.26;100.00;99768.88;2114220;28;20248;-77
2020/12/17 02:50:36;;;;;;;243.88;121.28;;;;;;;2.23;100.00;99764.03;2114168;28;20224;-77
2020/12/17 02:51:39;;;;;;;243.03;123.17;;;;;;;2.21;100.00;99760.03;2113735;28;20303;-77
2020/12/17 02:52:40;;;;;;;254.45;122.70;;;;;;;2.17;100.00;99761.50;2113549;28;20224;-77
2020/12/17 02:53:41;;;;;;;244.93;120.15;;;;;;;2.18;100.00;99771.81;2114037;28;20284;-77
2020/12/17 02:54:42;;;;;;;238.52;120.88;;;;;;;2.17;100.00;99758.84;2113791;28;20232;-77
2020/12/17 02:55:44;;;;;;;240.90;121.67;;;;;;;2.14;100.00;99759.31;2113915;28;20224;-77
2020/12/17 02:56:44;;;;;;;238.45;119.93;;;;;;;2.03;100.00;99744.28;2113564;28;20217;-77
2020/12/17 02:57:46;;;;;;;235.90;122.10;;;;;;;2.08;100.00;99753.09;2114040;28;20216;-77
2020/12/17 02:58:46;;;;;;;251.88;121.82;;;;;;;2.10;100.00;99758.16;2113991;28;20619;-77
2020/12/17 02:59:48;;;;;;;249.90;121.50;;;;;;;2.11;100.00;99757.94;2105410;28;20216;-77
2020/12/17 03:00:48;;;;;;;246.93;123.03;;;;;;;2.10;100.00;99769.50;2105424;28;20221;-78
2020/12/17 03:01:49;;;;;;;237.27;119.93;;;;;;;2.10;100.00;99758.97;2105510;28;20213;-77
2020/12/17 03:02:50;;;;;;;242.80;123.32;;;;;;;2.17;100.00;99754.44;2114054;28;20217;-77
2020/12/17 03:03:51;;;;;;;238.20;123.50;;;;;;;2.26;100.00;99758.34;2113510;28;20254;-77
2020/12/17 03:04:52;;;;;;;241.10;122.07;;;;;;;2.36;100.00;99767.53;2105053;28;20252;-77
2020/12/17 03:05:54;;;;;;;242.03;122.43;;;;;;;2.25;100.00;99755.91;2105097;28;20296;-77
2020/12/17 03:06:55;;;;;;;231.02;117.65;;;;;;;2.30;100.00;99763.16;2105622;28;20228;-77
2020/12/17 03:07:56;;;;;;;234.30;120.63;;;;;;;2.37;100.00;99763.88;2113657;28;20298;-77
2020/12/17 03:08:57;;;;;;;229.82;121.07;;;;;;;2.34;100.00;99770.38;2122841;27;20228;-77
2020/12/17 03:09:58;;;;;;;231.60;117.97;;;;;;;2.26;100.00;99758.34;2113740;28;20231;-77
2020/12/17 03:11:00;;;;;;;227.65;118.18;;;;;;;2.23;100.00;99748.25;2113928;28;20220;-77
2020/12/17 03:12:01;;;;;;;233.60;121.68;;;;;;;2.15;100.00;99756.47;2113483;28;20217;-77
2020/12/17 03:13:02;;;;;;;240.13;122.03;;;;;;;2.14;100.00;99765.38;2104987;28;20252;-77
2020/12/17 03:14:03;;;;;;;231.53;118.47;;;;;;;2.15;100.00;99766.97;2113943;28;20240;-78
2020/12/17 03:15:04;;;;;;;240.38;121.35;;;;;;;2.15;100.00;99761.72;2113747;28;20220;-78
2020/12/17 03:16:05;;;;;;;229.73;122.33;;;;;;;2.14;100.00;99761.94;2113931;28;20228;-78
2020/12/17 03:17:06;;;;;;;237.68;121.38;;;;;;;2.09;100.00;99760.00;2122935;27;20635;-78
2020/12/17 03:18:07;;;;;;;225.17;121.03;;;;;;;2.05;100.00;99755.41;2104852;28;20342;-78
2020/12/17 03:19:08;;;;;;;233.40;121.70;;;;;;;2.08;100.00;99757.56;2096893;28;20766;-78
2020/12/17 03:20:10;;;;;;;242.87;123.20;;;;;;;2.02;100.00;99754.03;2104982;28;20651;-78
2020/12/17 03:21:11;;;;;;;238.15;121.93;;;;;;;1.98;100.00;99752.84;2105452;28;20684;-77
2020/12/17 03:22:15;;;;;;;228.50;121.83;;;;;;;2.00;100.00;99763.97;2105228;28;20611;-77
2020/12/17 03:23:16;;;;;;;243.65;119.53;;;;;;;1.93;100.00;99753.53;2105786;28;20240;-78
2020/12/17 03:24:17;;;;;;;235.17;121.60;;;;;;;1.93;100.00;99755.34;2119897;27;20224;-77
2020/12/17 03:25:18;;;;;;;243.45;122.97;;;;;;;1.89;100.00;99756.81;2113673;28;20232;-77
2020/12/17 03:26:20;;;;;;;235.87;121.53;;;;;;;1.91;100.00;99766.09;2104828;28;20245;-78
2020/12/17 03:27:21;;;;;;;241.10;121.88;;;;;;;1.92;100.00;99759.00;2113680;28;20221;-77
2020/12/17 03:28:22;;;;;;;226.27;121.50;;;;;;;1.91;100.00;99760.00;2113261;28;20255;-77
2020/12/17 03:29:23;;;;;;;242.35;122.20;;;;;;;1.90;100.00;99761.03;2122861;27;20224;-77
2020/12/17 03:30:24;;;;;;;231.50;121.73;;;;;;;1.84;100.00;99744.34;2113703;28;20213;-78
2020/12/17 03:31:25;;;;;;;233.45;122.30;;;;;;;1.91;100.00;99765.28;2113695;28;20223;-77
2020/12/17 03:32:26;;;;;;;234.93;120.80;;;;;;;1.82;100.00;99745.56;2122766;27;20254;-77
2020/12/17 03:33:27;;;;;;;226.18;117.00;;;;;;;1.89;100.00;99751.53;2113656;28;20577;-77
2020/12/17 03:34:29;;;;;;;233.38;117.07;;;;;;;1.96;100.00;99752.28;2113608;28;20221;-77
2020/12/17 03:35:30;;;;;;;236.40;115.45;;;;;;;1.96;100.00;99754.91;2122714;27;20223;-77
2020/12/17 03:36:31;;;;;;;229.88;117.25;;;;;;;1.93;100.00;99760.63;2122705;27;20227;-77
2020/12/17 03:37:33;;;;;;;232.97;113.33;;;;;;;1.83;100.00;99741.94;2113186;28;20240;-77
2020/12/17 03:38:33;;;;;;;235.98;116.40;;;;;;;1.90;100.00;99761.03;2113786;27;20217;-77
2020/12/17 03:39:35;;;;;;;221.07;115.20;;;;;;;1.89;100.00;99760.25;2113705;28;20254;-77
2020/12/17 03:40:35;;;;;;;208.07;109.78;;;;;;;1.87;100.00;99756.22;2113686;28;20216;-77
2020/12/17 03:41:38;;;;;;;216.83;109.97;;;;;;;1.79;100.00;99753.91;2113624;28;20258;-77
2020/12/17 03:42:39;;;;;;;221.40;108.97;;;;;;;1.84;100.00;99762.75;2113485;28;20271;-77
2020/12/17 03:43:40;;;;;;;214.57;110.80;;;;;;;1.85;100.00;99761.72;2122670;27;20586;-77
2020/12/17 03:44:41;;;;;;;217.50;111.32;;;;;;;1.84;100.00;99748.78;2113218;28;20697;-77
2020/12/17 03:45:42;;;;;;;211.03;106.00;;;;;;;1.82;100.00;99746.34;2113695;28;20674;-77
2020/12/17 03:46:44;;;;;;;208.32;104.75;;;;;;;1.81;100.00;99746.59;2105155;28;20217;-77
2020/12/17 03:47:45;;;;;;;214.70;105.57;;;;;;;1.78;100.00;99747.03;2113690;28;20221;-77
2020/12/17 03:48:46;;;;;;;212.95;106.38;;;;;;;1.80;100.00;99747.63;2113435;28;20745;-77
2020/12/17 03:49:47;;;;;;;208.93;106.97;;;;;;;1.79;100.00;99748.63;2113399;28;20592;-77
2020/12/17 03:50:48;;;;;;;204.38;105.25;;;;;;;1.71;100.00;99731.31;2113392;28;20221;-77
2020/12/17 03:51:49;;;;;;;207.93;105.23;;;;;;;1.74;100.00;99741.44;2113105;28;20303;-77
2020/12/17 03:52:50;;;;;;;209.05;108.22;;;;;;;1.72;100.00;99740.81;2113579;27;20599;-77
2020/12/17 03:53:51;;;;;;;208.00;107.73;;;;;;;1.73;100.00;99749.50;2122748;27;20220;-77
2020/12/17 03:54:52;;;;;;;200.55;105.65;;;;;;;1.74;100.00;99751.94;2104566;28;20225;-77
2020/12/17 03:55:53;;;;;;;210.33;105.97;;;;;;;1.71;100.00;99739.22;2104885;28;20303;-78
2020/12/17 03:56:55;;;;;;;217.88;107.22;;;;;;;1.62;100.00;99733.47;2104591;28;20284;-77
2020/12/17 03:57:56;;;;;;;217.90;106.65;;;;;;;1.66;100.00;99753.06;2096587;28;20233;-78
2020/12/17 03:58:57;;;;;;;211.35;106.20;;;;;;;1.62;100.00;99741.34;2096615;28;20244;-78
2020/12/17 03:59:58;;;;;;;218.70;107.80;;;;;;;1.65;100.00;99750.63;2104318;28;20236;-78
2020/12/17 04:00:59;;;;;;;217.15;109.07;;;;;;;1.63;100.00;99748.22;2105019;28;20230;-78
2020/12/17 04:02:00;;;;;;;208.37;105.37;;;;;;;1.57;100.00;99733.34;2104639;28;20252;-78
2020/12/17 04:03:01;;;;;;;219.70;107.65;;;;;;;1.64;100.00;99741.91;2104992;28;20554;-77
2020/12/17 04:04:02;;;;;;;211.17;106.97;;;;;;;1.65;100.00;99740.94;2119798;27;20288;-77
2020/12/17 04:05:03;;;;;;;207.80;106.88;;;;;;;1.63;100.00;99736.88;2122643;27;20227;-78
2020/12/17 04:06:04;;;;;;;219.07;107.30;;;;;;;1.66;100.00;99737.28;2112676;28;20254;-77
2020/12/17 04:07:05;;;;;;;224.48;109.28;;;;;;;1.61;100.00;99734.47;2113497;28;20225;-77
2020/12/17 04:08:06;;;;;;;208.00;107.33;;;;;;;1.65;100.00;99738.28;2113250;28;20225;-77
2020/12/17 04:09:07;;;;;;;201.10;104.38;;;;;;;1.55;100.00;99722.22;2106727;28;20230;-78
2020/12/17 04:10:08;;;;;;;211.77;107.90;;;;;;;1.66;100.00;99745.16;2104837;28;20825;-78
2020/12/17 04:11:09;;;;;;;211.23;110.65;;;;;;;1.62;100.00;99728.19;2096231;28;20229;-77
2020/12/17 04:12:11;;;;;;;210.90;105.90;;;;;;;1.66;100.00;99739.09;2096735;28;20313;-78
2020/12/17 04:13:11;;;;;;;212.70;105.90;;;;;;;1.68;100.00;99740.47;2096643;28;20309;-78
2020/12/17 04:14:13;;;;;;;221.73;108.87;;;;;;;1.58;100.00;99729.69;2096544;28;20256;-77
2020/12/17 04:15:13;;;;;;;219.90;109.28;;;;;;;1.64;100.00;99743.75;2104812;28;20255;-77
2020/12/17 04:16:15;;;;;;;216.03;111.13;;;;;;;1.60;100.00;99726.81;2119489;27;20758;-78
2020/12/17 04:17:15;;;;;;;214.73;107.80;;;;;;;1.63;100.00;99736.88;2113357;28;20227;-77
2020/12/17 04:18:17;;;;;;;209.20;113.70;;;;;;;1.66;100.00;99736.47;2104890;28;20228;-78
2020/12/17 04:19:17;;;;;;;216.90;110.30;;;;;;;1.63;100.00;99735.06;2113082;28;20221;-77
2020/12/17 04:20:19;;;;;;;208.77;108.10;;;;;;;1.66;100.00;99742.53;2104771;28;20229;-78
2020/12/17 04:21:19;;;;;;;203.32;104.45;;;;;;;1.71;100.00;99739.22;2113435;28;20224;-78
2020/12/17 04:22:21;;;;;;;210.33;108.93;;;;;;;1.74;100.00;99733.53;2122453;27;20689;-78
2020/12/17 04:23:22;;;;;;;213.02;106.28;;;;;;;1.72;100.00;99740.81;2121983;27;20310;-78
2020/12/17 04:24:23;;;;;;;209.10;106.93;;;;;;;1.68;100.00;99734.41;2112668;28;20237;-78
2020/12/17 04:25:23;;;;;;;219.25;108.93;;;;;;;1.67;100.00;99730.97;2113362;28;20231;-78
2020/12/17 04:26:25;;;;;;;213.17;109.70;;;;;;;1.71;100.00;99728.69;2113180;28;20236;-78
2020/12/17 04:27:26;;;;;;;222.60;110.03;;;;;;;1.72;100.00;99732.13;2113280;28;20305;-78
2020/12/17 04:28:27;;;;;;;230.85;111.30;;;;;;;1.67;100.00;99728.34;2122300;27;20255;-78
2020/12/17 04:29:28;;;;;;;227.45;111.18;;;;;;;1.62;100.00;99720.31;2122185;27;20236;-78
2020/12/17 04:30:29;;;;;;;220.30;109.50;;;;;;;1.69;100.00;99736.81;2103278;28;20305;-78
2020/12/17 04:31:30;;;;;;;217.80;109.13;;;;;;;1.70;100.00;99733.16;2104533;28;20568;-79
2020/12/17 04:32:31;;;;;;;200.30;104.80;;;;;;;1.72;100.00;99727.66;2113297;28;20244;-78
2020/12/17 04:33:32;;;;;;;215.65;104.05;;;;;;;1.74;100.00;99728.28;2122274;27;20280;-78
2020/12/17 04:34:33;;;;;;;211.80;104.90;;;;;;;1.69;100.00;99728.94;2122394;27;20254;-78
2020/12/17 04:35:34;;;;;;;212.02;104.43;;;;;;;1.57;100.00;99720.19;2113119;28;20548;-78
2020/12/17 04:36:35;;;;;;;206.83;99.07;;;;;;;1.61;100.00;99716.06;2113280;28;20748;-78
2020/12/17 04:37:36;;;;;;;199.63;99.18;;;;;;;1.63;100.00;99727.16;2122293;27;20216;-78